Time;durP1;ratioP1;P1;durP2;ratioP2;P2;SDS_P1;SDS_P2;PMS_P1;PMS_P2;Temp;Humidity;BMP_temperature;BMP_pressure;BME280_temperature;BME280_humidity;BME280_pressure;Samples;Min_cycle;Max_cycle;Signal;HPM_P1;HPM_P2
2022/01/08 04:49:20;;;;;;;0.00;0.00;;;0.10;1.00;-0.60;92860.00;;;;6215360;23;20226;-84
2022/01/08 04:51:49;;;;;;;0.03;0.00;;;0.10;1.00;-0.20;92688.00;;;;6233217;23;20710;-81
2022/01/08 04:54:17;;;;;;;0.00;0.00;;;0.00;1.00;-0.20;92814.00;;;;6185900;23;20183;-82
2022/01/08 04:57:07;;;;;;;0.00;0.00;;;0.00;1.00;-0.20;93026.00;;;;6228153;23;20195;-80
2022/01/08 04:59:37;;;;;;;0.00;0.00;;;0.00;1.00;-0.30;92833.00;;;;6203965;23;20218;-82
2022/01/08 05:02:06;;;;;;;0.00;0.00;;;0.00;1.00;-0.30;92772.00;;;;6204540;23;20171;-81
2022/01/08 05:04:34;;;;;;;0.00;0.00;;;-0.10;1.00;-1.50;92812.00;;;;6233695;22;20196;-81
2022/01/08 05:07:11;;;;;;;0.00;0.00;;;0.00;1.00;-1.40;92823.00;;;;6210725;23;20230;-82
2022/01/08 05:09:59;;;;;;;0.30;0.30;;;0.00;1.00;-0.40;92689.00;;;;6231623;23;20183;-82
2022/01/08 05:12:28;;;;;;;0.67;0.30;;;-0.10;99.90;-0.30;92947.00;;;;6229429;23;20190;-81
2022/01/08 05:15:02;;;;;;;0.40;0.40;;;-0.10;99.90;-0.50;92778.00;;;;6198891;23;20223;-80
2022/01/08 05:17:38;;;;;;;0.67;0.63;;;-0.20;99.90;-0.50;92817.00;;;;6226701;23;20211;-80
2022/01/08 05:20:32;;;;;;;1.53;0.63;;;-0.20;99.90;-0.60;92695.00;;;;6212518;23;20170;-82
2022/01/08 05:23:16;;;;;;;0.73;0.73;;;-0.20;99.90;-1.00;93094.00;;;;6203516;23;20143;-82
2022/01/08 05:29:35;;;;;;;0.60;0.60;;;-0.30;99.90;-0.60;92908.00;;;;6221332;22;20219;-83
2022/01/08 05:32:46;;;;;;;0.50;0.50;;;-0.30;99.90;-0.50;92863.00;;;;6190961;23;20246;-82
2022/01/08 05:35:24;;;;;;;0.90;0.87;;;-0.30;99.90;-0.50;92768.00;;;;6156495;23;20596;-82
2022/01/08 05:37:56;;;;;;;1.97;1.00;;;-0.30;99.90;-0.70;92901.00;;;;6153963;23;20160;-82
2022/01/08 05:40:28;;;;;;;0.70;0.70;;;-0.40;99.90;-0.60;92931.00;;;;6204029;23;20192;-81
2022/01/08 05:42:55;;;;;;;0.50;0.50;;;-0.50;99.90;-1.40;93176.00;;;;6173805;23;20173;-81
2022/01/08 05:48:47;;;;;;;0.97;0.40;;;-0.60;99.90;-1.00;93006.00;;;;6204476;22;20191;-82
2022/01/08 05:56:35;;;;;;;3.23;0.90;;;-0.80;99.90;-1.80;93290.00;;;;6211061;22;20187;-82
2022/01/08 05:59:03;;;;;;;2.03;1.30;;;-0.90;99.90;-2.20;93070.00;;;;6206154;22;20210;-84
2022/01/08 06:06:57;;;;;;;1.93;1.20;;;-1.10;99.90;-1.20;93054.00;;;;6235339;22;20208;-84
2022/01/08 06:09:28;;;;;;;1.97;1.30;;;-1.20;99.90;-1.30;93323.00;;;;6206090;23;20490;-82
2022/01/08 06:12:04;;;;;;;2.07;1.30;;;-1.20;99.90;-1.10;92912.00;;;;6202516;23;20193;-82
2022/01/08 06:14:35;;;;;;;1.50;1.37;;;-1.20;99.90;-1.40;93243.00;;;;6220330;23;20256;-81
2022/01/08 06:17:03;;;;;;;1.73;1.30;;;-1.30;99.90;-1.40;92995.00;;;;6174627;22;20218;-83
2022/01/08 06:19:33;;;;;;;3.50;1.50;;;-1.20;99.90;-1.30;92881.00;;;;6185096;23;20201;-83
2022/01/08 06:22:05;;;;;;;1.80;1.40;;;-1.30;99.90;-2.60;92989.00;;;;6177937;22;20205;-82
2022/01/08 06:24:32;;;;;;;1.97;1.17;;;-1.30;99.90;-1.80;93003.00;;;;6196588;23;20568;-82
2022/01/08 06:27:01;;;;;;;3.63;1.40;;;-1.30;99.90;-2.20;93099.00;;;;6197377;23;20232;-82
2022/01/08 06:29:28;;;;;;;3.70;1.47;;;-1.30;99.90;-1.30;93093.00;;;;6174679;23;20165;-82
2022/01/08 06:32:03;;;;;;;1.80;1.37;;;-1.30;99.90;-1.30;93118.00;;;;6175958;23;20216;-82
2022/01/08 06:37:24;;;;;;;1.80;1.17;;;-1.30;99.90;-1.30;93202.00;;;;6251240;22;20285;-82
2022/01/08 06:39:55;;;;;;;3.87;1.90;;;-1.30;99.90;-1.30;93129.00;;;;6142576;23;20250;-83
2022/01/08 06:45:08;;;;;;;6.27;2.00;;;-1.30;99.90;-1.50;93090.00;;;;6198952;22;21035;-82
2022/01/08 06:47:48;;;;;;;2.03;1.70;;;-1.30;99.90;-1.30;93118.00;;;;6227898;23;20242;-83
2022/01/08 06:58:29;;;;;;;2.03;1.30;;;-1.30;99.90;-1.60;93174.00;;;;6285210;22;20202;-83
2022/01/08 07:01:02;;;;;;;3.33;1.83;;;-1.30;99.90;-1.50;93144.00;;;;6213457;23;20199;-83
2022/01/08 07:03:48;;;;;;;1.73;1.40;;;-1.30;99.90;-1.50;93153.00;;;;6213252;23;20195;-83
2022/01/08 07:06:29;;;;;;;4.00;1.50;;;-1.30;99.90;-2.50;93178.00;;;;6204666;23;20252;-82
2022/01/08 07:09:06;;;;;;;1.53;1.23;;;-1.30;99.90;-1.50;93115.00;;;;6156259;23;20169;-83
2022/01/08 07:11:33;;;;;;;3.20;1.50;;;-1.30;99.90;-1.40;93169.00;;;;6158440;23;20165;-83
2022/01/08 07:14:06;;;;;;;2.90;1.50;;;-1.30;99.90;-1.50;93271.00;;;;6155877;23;20172;-83
2022/01/08 07:27:30;;;;;;;3.33;2.00;;;-1.50;1.00;-2.50;93187.00;;;;6222338;22;20263;-83
2022/01/08 07:30:11;;;;;;;3.53;1.73;;;-1.40;1.00;-1.50;93466.00;;;;6233749;23;20167;-82
2022/01/08 07:32:50;;;;;;;1.90;1.37;;;-1.50;1.00;-1.50;93322.00;;;;6260665;23;20197;-83
2022/01/08 07:35:22;;;;;;;2.80;1.20;;;-1.40;1.00;-1.50;93245.00;;;;6238081;23;20170;-83
2022/01/08 07:37:57;;;;;;;1.70;1.20;;;-1.50;1.00;-1.60;93165.00;;;;6240511;23;20183;-82
2022/01/08 07:40:30;;;;;;;2.23;1.40;;;-1.50;1.00;-2.50;93245.00;;;;6217633;23;20214;-84
2022/01/08 07:43:01;;;;;;;2.87;1.77;;;-1.50;1.00;-1.50;93305.00;;;;6242157;23;20497;-83
2022/01/08 07:45:30;;;;;;;5.13;1.33;;;-1.50;1.00;-1.50;93283.00;;;;6240328;23;20180;-83
2022/01/08 07:48:01;;;;;;;1.00;0.90;;;-1.40;1.00;-1.40;93353.00;;;;6239056;23;20237;-82
2022/01/08 07:50:32;;;;;;;2.23;1.10;;;-1.40;1.00;-1.40;93443.00;;;;6238858;23;20163;-84
2022/01/08 07:53:05;;;;;;;1.10;1.00;;;-1.40;20.60;-1.50;93287.00;;;;6189624;23;20171;-83
2022/01/08 07:55:40;;;;;;;1.20;1.10;;;-1.40;43.30;-1.40;93363.00;;;;6227049;23;20203;-84
2022/01/08 07:58:12;;;;;;;2.70;1.10;;;-1.40;53.50;-1.60;93287.00;;;;6212298;23;20228;-82
2022/01/08 08:00:43;;;;;;;3.70;1.37;;;-1.40;49.40;-1.30;93361.00;;;;6209047;23;20250;-84
2022/01/08 08:03:20;;;;;;;2.50;1.03;;;-1.40;37.40;-1.80;93225.00;;;;6236133;23;20172;-83
2022/01/08 08:05:48;;;;;;;2.20;1.30;;;-1.30;56.90;-2.20;93319.00;;;;6260855;23;20191;-83
2022/01/08 08:08:18;;;;;;;2.47;1.23;;;-1.30;20.90;-1.40;93328.00;;;;6206342;22;20195;-83
2022/01/08 08:10:53;;;;;;;1.50;1.40;;;-1.30;14.20;-1.30;93238.00;;;;6163020;23;20171;-82
2022/01/08 08:13:22;;;;;;;5.03;2.10;;;-1.30;8.20;-2.60;93429.00;;;;6185604;23;20159;-83
2022/01/08 08:15:55;;;;;;;5.27;1.77;;;-1.30;1.00;-1.60;93156.00;;;;6212020;23;20223;-83
2022/01/08 08:18:29;;;;;;;2.97;1.90;;;-1.30;1.00;-1.40;93518.00;;;;6188974;23;20711;-83
2022/01/08 08:21:00;;;;;;;3.93;1.80;;;-1.30;1.00;-2.70;93627.00;;;;6189449;23;20243;-82
2022/01/08 08:23:31;;;;;;;3.70;2.40;;;-1.20;1.00;-1.50;93359.00;;;;6188762;23;20182;-83
2022/01/08 08:26:01;;;;;;;8.93;2.17;;;-1.10;1.00;-1.30;93385.00;;;;6211419;23;20457;-83
2022/01/08 08:28:41;;;;;;;3.83;2.17;;;-1.10;99.90;-1.90;93300.00;;;;6195324;23;20201;-82
2022/01/08 08:31:28;;;;;;;4.00;2.00;;;-1.20;99.90;-2.30;93338.00;;;;6214178;23;20172;-82
2022/01/08 08:34:03;;;;;;;4.10;2.40;;;-1.20;99.90;-2.60;93733.00;;;;6238737;23;20196;-83
2022/01/08 08:39:14;;;;;;;3.17;1.90;;;-1.10;99.90;-1.20;93446.00;;;;6194346;22;20669;-82
2022/01/08 08:49:57;;;;;;;6.33;2.13;;;-1.10;99.90;-1.20;93298.00;;;;6208139;22;20179;-82
2022/01/08 09:24:54;;;;;;;2.63;1.80;;;-0.30;99.90;-1.10;93316.00;;;;6225257;22;20182;-82
2022/01/08 09:57:00;;;;;;;3.10;1.67;;;-0.20;99.90;-2.20;93514.00;;;;6240551;22;20195;-83
